sensor_id;sensor_type;location;lat;lon;timestamp;pressure;altitude;pressure_sealevel;temperature;humidity
60817;BME280;51921;51.518;-3.188;2024-02-28T00:00:50;101583.95;;;9.31;100.00
60817;BME280;51921;51.518;-3.188;2024-02-28T00:03:15;101589.31;;;8.17;100.00
60817;BME280;51921;51.518;-3.188;2024-02-28T00:05:41;101592.49;;;8.61;100.00
60817;BME280;51921;51.518;-3.188;2024-02-28T00:08:06;101590.00;;;8.61;100.00
60817;BME280;51921;51.518;-3.188;2024-02-28T00:10:32;101592.71;;;10.83;100.00
60817;BME280;51921;51.518;-3.188;2024-02-28T00:15:23;101588.38;;;9.32;100.00
60817;BME280;51921;51.518;-3.188;2024-02-28T00:17:52;101589.27;;;9.02;100.00
60817;BME280;51921;51.518;-3.188;2024-02-28T00:20:13;101599.40;;;8.73;100.00
60817;BME280;51921;51.518;-3.188;2024-02-28T00:22:39;101603.18;;;8.41;100.00
60817;BME280;51921;51.518;-3.188;2024-02-28T00:29:56;101600.64;;;8.79;100.00
60817;BME280;51921;51.518;-3.188;2024-02-28T00:32:21;101596.07;;;7.90;100.00
60817;BME280;51921;51.518;-3.188;2024-02-28T00:34:46;101585.34;;;8.64;100.00
60817;BME280;51921;51.518;-3.188;2024-02-28T00:37:11;101587.59;;;8.42;100.00
60817;BME280;51921;51.518;-3.188;2024-02-28T00:39:37;101587.35;;;8.78;100.00
60817;BME280;51921;51.518;-3.188;2024-02-28T00:42:03;101582.39;;;9.00;100.00
60817;BME280;51921;51.518;-3.188;2024-02-28T00:44:28;101581.95;;;8.80;100.00
60817;BME280;51921;51.518;-3.188;2024-02-28T00:46:54;101587.46;;;9.44;100.00
60817;BME280;51921;51.518;-3.188;2024-02-28T00:49:19;101586.20;;;10.90;100.00
60817;BME280;51921;51.518;-3.188;2024-02-28T00:51:46;101584.54;;;9.17;100.00
60817;BME280;51921;51.518;-3.188;2024-02-28T00:54:10;101582.71;;;9.84;100.00
60817;BME280;51921;51.518;-3.188;2024-02-28T00:56:36;101577.08;;;8.96;100.00
60817;BME280;51921;51.518;-3.188;2024-02-28T00:59:01;101577.71;;;8.98;100.00
60817;BME280;51921;51.518;-3.188;2024-02-28T01:01:26;101589.44;;;9.01;100.00
60817;BME280;51921;51.518;-3.188;2024-02-28T01:03:52;101595.97;;;7.70;100.00
60817;BME280;51921;51.518;-3.188;2024-02-28T01:06:18;101587.76;;;7.46;100.00
60817;BME280;51921;51.518;-3.188;2024-02-28T01:08:43;101584.57;;;8.49;100.00
60817;BME280;51921;51.518;-3.188;2024-02-28T01:11:08;101586.71;;;9.88;100.00
60817;BME280;51921;51.518;-3.188;2024-02-28T01:13:34;101583.01;;;8.72;100.00
60817;BME280;51921;51.518;-3.188;2024-02-28T01:16:01;101589.42;;;8.22;100.00
60817;BME280;51921;51.518;-3.188;2024-02-28T01:18:25;101598.27;;;7.73;100.00
60817;BME280;51921;51.518;-3.188;2024-02-28T01:20:51;101600.78;;;7.83;100.00
60817;BME280;51921;51.518;-3.188;2024-02-28T01:23:16;101600.55;;;8.59;100.00
60817;BME280;51921;51.518;-3.188;2024-02-28T01:25:41;101606.84;;;7.26;100.00
60817;BME280;51921;51.518;-3.188;2024-02-28T01:28:07;101608.86;;;8.44;100.00
60817;BME280;51921;51.518;-3.188;2024-02-28T01:30:32;101609.02;;;7.17;100.00
60817;BME280;51921;51.518;-3.188;2024-02-28T01:32:58;101612.99;;;8.50;100.00
60817;BME280;51921;51.518;-3.188;2024-02-28T01:35:23;101617.90;;;7.91;100.00
60817;BME280;51921;51.518;-3.188;2024-02-28T01:37:54;101620.74;;;7.26;100.00
60817;BME280;51921;51.518;-3.188;2024-02-28T01:40:15;101617.81;;;7.02;100.00
60817;BME280;51921;51.518;-3.188;2024-02-28T01:42:40;101604.72;;;6.65;100.00
60817;BME280;51921;51.518;-3.188;2024-02-28T01:45:06;101609.33;;;6.63;100.00
60817;BME280;51921;51.518;-3.188;2024-02-28T01:47:31;101616.30;;;7.12;100.00
60817;BME280;51921;51.518;-3.188;2024-02-28T01:49:56;101616.39;;;7.96;100.00
60817;BME280;51921;51.518;-3.188;2024-02-28T01:52:22;101615.75;;;7.87;100.00
60817;BME280;51921;51.518;-3.188;2024-02-28T01:54:48;101614.46;;;6.54;100.00
60817;BME280;51921;51.518;-3.188;2024-02-28T01:57:13;101612.44;;;6.77;100.00
60817;BME280;51921;51.518;-3.188;2024-02-28T01:59:38;101608.01;;;7.47;100.00
60817;BME280;51921;51.518;-3.188;2024-02-28T02:02:04;101605.74;;;6.93;100.00
60817;BME280;51921;51.518;-3.188;2024-02-28T02:04:29;101609.66;;;7.79;100.00
60817;BME280;51921;51.518;-3.188;2024-02-28T02:06:55;101604.37;;;8.64;100.00
60817;BME280;51921;51.518;-3.188;2024-02-28T02:09:21;101604.87;;;7.54;100.00
60817;BME280;51921;51.518;-3.188;2024-02-28T02:11:46;101604.01;;;6.71;100.00
60817;BME280;51921;51.518;-3.188;2024-02-28T02:14:11;101594.22;;;7.12;100.00
60817;BME280;51921;51.518;-3.188;2024-02-28T02:19:02;101603.20;;;6.01;100.00
60817;BME280;51921;51.518;-3.188;2024-02-28T02:21:30;101604.47;;;7.03;100.00
60817;BME280;51921;51.518;-3.188;2024-02-28T02:23:53;101595.82;;;7.20;100.00
60817;BME280;51921;51.518;-3.188;2024-02-28T02:26:18;101589.62;;;7.19;100.00
60817;BME280;51921;51.518;-3.188;2024-02-28T02:28:44;101587.22;;;8.51;100.00
60817;BME280;51921;51.518;-3.188;2024-02-28T02:31:11;101589.77;;;7.14;100.00
60817;BME280;51921;51.518;-3.188;2024-02-28T02:33:35;101600.75;;;7.28;100.00
60817;BME280;51921;51.518;-3.188;2024-02-28T02:36:00;101608.00;;;7.39;100.00
60817;BME280;51921;51.518;-3.188;2024-02-28T02:38:25;101611.56;;;8.50;100.00
60817;BME280;51921;51.518;-3.188;2024-02-28T02:40:50;101604.76;;;8.68;100.00
60817;BME280;51921;51.518;-3.188;2024-02-28T02:43:16;101606.71;;;9.65;100.00
60817;BME280;51921;51.518;-3.188;2024-02-28T02:45:41;101601.02;;;8.46;100.00
60817;BME280;51921;51.518;-3.188;2024-02-28T02:48:07;101594.02;;;8.86;100.00
60817;BME280;51921;51.518;-3.188;2024-02-28T02:50:31;101591.63;;;9.51;100.00
60817;BME280;51921;51.518;-3.188;2024-02-28T02:52:57;101593.02;;;9.02;100.00
60817;BME280;51921;51.518;-3.188;2024-02-28T02:55:22;101589.64;;;9.02;100.00
60817;BME280;51921;51.518;-3.188;2024-02-28T02:57:47;101591.45;;;9.70;100.00
60817;BME280;51921;51.518;-3.188;2024-02-28T03:00:13;101582.40;;;7.19;100.00
60817;BME280;51921;51.518;-3.188;2024-02-28T03:02:39;101581.07;;;8.88;100.00
60817;BME280;51921;51.518;-3.188;2024-02-28T03:05:05;101586.96;;;10.04;100.00
60817;BME280;51921;51.518;-3.188;2024-02-28T03:07:30;101583.66;;;6.93;100.00
60817;BME280;51921;51.518;-3.188;2024-02-28T03:12:21;101589.07;;;8.25;100.00
60817;BME280;51921;51.518;-3.188;2024-02-28T03:14:46;101588.00;;;10.18;100.00
60817;BME280;51921;51.518;-3.188;2024-02-28T03:17:12;101595.11;;;10.10;100.00
60817;BME280;51921;51.518;-3.188;2024-02-28T03:19:37;101590.98;;;9.95;100.00
60817;BME280;51921;51.518;-3.188;2024-02-28T03:22:03;101593.30;;;8.73;100.00
60817;BME280;51921;51.518;-3.188;2024-02-28T03:24:28;101599.53;;;7.76;100.00
60817;BME280;51921;51.518;-3.188;2024-02-28T03:26:54;101593.60;;;8.42;100.00
60817;BME280;51921;51.518;-3.188;2024-02-28T03:29:19;101588.37;;;7.75;100.00
60817;BME280;51921;51.518;-3.188;2024-02-28T03:31:49;101575.49;;;6.69;100.00
60817;BME280;51921;51.518;-3.188;2024-02-28T03:34:09;101582.88;;;7.92;100.00
60817;BME280;51921;51.518;-3.188;2024-02-28T03:36:35;101587.32;;;7.98;100.00
60817;BME280;51921;51.518;-3.188;2024-02-28T03:39:01;101583.82;;;7.31;100.00
60817;BME280;51921;51.518;-3.188;2024-02-28T03:41:27;101589.71;;;7.83;100.00
60817;BME280;51921;51.518;-3.188;2024-02-28T03:43:52;101594.32;;;5.31;100.00
60817;BME280;51921;51.518;-3.188;2024-02-28T03:46:18;101591.34;;;8.35;100.00
60817;BME280;51921;51.518;-3.188;2024-02-28T03:48:43;101579.96;;;7.72;100.00
60817;BME280;51921;51.518;-3.188;2024-02-28T03:51:08;101572.00;;;7.63;100.00
60817;BME280;51921;51.518;-3.188;2024-02-28T03:53:34;101576.70;;;7.68;100.00
60817;BME280;51921;51.518;-3.188;2024-02-28T03:55:59;101573.67;;;8.40;100.00
60817;BME280;51921;51.518;-3.188;2024-02-28T03:58:24;101581.18;;;9.51;100.00
60817;BME280;51921;51.518;-3.188;2024-02-28T04:00:50;101587.84;;;7.87;100.00
60817;BME280;51921;51.518;-3.188;2024-02-28T04:03:16;101588.75;;;7.92;100.00
60817;BME280;51921;51.518;-3.188;2024-02-28T04:05:41;101591.44;;;8.16;100.00
60817;BME280;51921;51.518;-3.188;2024-02-28T04:08:07;101592.79;;;7.97;100.00
60817;BME280;51921;51.518;-3.188;2024-02-28T04:10:32;101589.21;;;7.32;100.00
60817;BME280;51921;51.518;-3.188;2024-02-28T04:12:57;101574.79;;;7.40;100.00
60817;BME280;51921;51.518;-3.188;2024-02-28T04:15:23;101567.10;;;8.44;100.00
60817;BME280;51921;51.518;-3.188;2024-02-28T04:17:48;101564.70;;;7.87;100.00
60817;BME280;51921;51.518;-3.188;2024-02-28T04:20:13;101563.91;;;7.90;100.00
60817;BME280;51921;51.518;-3.188;2024-02-28T04:22:39;101560.35;;;8.27;100.00
60817;BME280;51921;51.518;-3.188;2024-02-28T04:25:05;101552.28;;;7.76;100.00
60817;BME280;51921;51.518;-3.188;2024-02-28T04:27:29;101548.79;;;7.27;100.00
60817;BME280;51921;51.518;-3.188;2024-02-28T04:29:55;101549.90;;;7.27;100.00
60817;BME280;51921;51.518;-3.188;2024-02-28T04:32:20;101542.25;;;6.84;100.00
60817;BME280;51921;51.518;-3.188;2024-02-28T04:34:46;101534.69;;;5.14;100.00
60817;BME280;51921;51.518;-3.188;2024-02-28T04:37:11;101531.76;;;7.09;100.00
60817;BME280;51921;51.518;-3.188;2024-02-28T04:39:36;101526.38;;;8.47;100.00
60817;BME280;51921;51.518;-3.188;2024-02-28T04:42:02;101524.65;;;8.10;100.00
60817;BME280;51921;51.518;-3.188;2024-02-28T04:44:27;101524.40;;;7.42;100.00
60817;BME280;51921;51.518;-3.188;2024-02-28T04:46:53;101515.46;;;7.09;100.00
60817;BME280;51921;51.518;-3.188;2024-02-28T04:49:19;101517.85;;;7.67;100.00
60817;BME280;51921;51.518;-3.188;2024-02-28T04:51:44;101516.47;;;7.22;100.00
60817;BME280;51921;51.518;-3.188;2024-02-28T04:54:09;101516.29;;;6.32;100.00
60817;BME280;51921;51.518;-3.188;2024-02-28T04:56:39;101516.91;;;7.29;100.00
60817;BME280;51921;51.518;-3.188;2024-02-28T04:59:00;101515.53;;;6.94;100.00
60817;BME280;51921;51.518;-3.188;2024-02-28T05:01:26;101519.52;;;6.62;100.00
60817;BME280;51921;51.518;-3.188;2024-02-28T05:03:52;101515.43;;;7.37;100.00
60817;BME280;51921;51.518;-3.188;2024-02-28T05:06:17;101521.87;;;6.76;100.00
60817;BME280;51921;51.518;-3.188;2024-02-28T05:08:42;101522.91;;;6.50;100.00
60817;BME280;51921;51.518;-3.188;2024-02-28T05:11:08;101525.90;;;5.89;100.00
60817;BME280;51921;51.518;-3.188;2024-02-28T05:13:35;101528.34;;;5.79;100.00
60817;BME280;51921;51.518;-3.188;2024-02-28T05:15:58;101520.20;;;6.09;100.00
60817;BME280;51921;51.518;-3.188;2024-02-28T05:18:25;101520.09;;;6.59;100.00
60817;BME280;51921;51.518;-3.188;2024-02-28T05:20:50;101521.10;;;5.85;100.00
60817;BME280;51921;51.518;-3.188;2024-02-28T05:23:16;101522.17;;;5.51;100.00
60817;BME280;51921;51.518;-3.188;2024-02-28T05:25:41;101517.74;;;6.43;100.00
60817;BME280;51921;51.518;-3.188;2024-02-28T05:28:07;101518.26;;;7.01;100.00
60817;BME280;51921;51.518;-3.188;2024-02-28T05:30:32;101515.40;;;7.03;100.00
60817;BME280;51921;51.518;-3.188;2024-02-28T05:32:57;101511.86;;;7.13;100.00
60817;BME280;51921;51.518;-3.188;2024-02-28T05:40:14;101495.37;;;7.13;100.00
60817;BME280;51921;51.518;-3.188;2024-02-28T05:42:39;101494.59;;;7.21;100.00
60817;BME280;51921;51.518;-3.188;2024-02-28T05:45:06;101493.52;;;7.04;100.00
60817;BME280;51921;51.518;-3.188;2024-02-28T05:47:30;101487.32;;;6.76;100.00
60817;BME280;51921;51.518;-3.188;2024-02-28T05:49:56;101481.85;;;7.86;100.00
60817;BME280;51921;51.518;-3.188;2024-02-28T05:52:21;101470.24;;;7.37;100.00
60817;BME280;51921;51.518;-3.188;2024-02-28T05:54:47;101462.21;;;7.66;100.00
60817;BME280;51921;51.518;-3.188;2024-02-28T05:57:12;101457.26;;;7.28;100.00
60817;BME280;51921;51.518;-3.188;2024-02-28T05:59:38;101451.34;;;7.20;100.00
60817;BME280;51921;51.518;-3.188;2024-02-28T06:02:03;101445.82;;;7.65;100.00
60817;BME280;51921;51.518;-3.188;2024-02-28T06:04:29;101439.93;;;8.04;100.00
60817;BME280;51921;51.518;-3.188;2024-02-28T06:06:54;101439.54;;;8.09;100.00
60817;BME280;51921;51.518;-3.188;2024-02-28T06:09:19;101445.02;;;7.87;100.00
60817;BME280;51921;51.518;-3.188;2024-02-28T06:11:50;101447.33;;;7.89;100.00
60817;BME280;51921;51.518;-3.188;2024-02-28T06:14:10;101452.06;;;7.36;100.00
60817;BME280;51921;51.518;-3.188;2024-02-28T06:16:36;101461.90;;;6.95;100.00
60817;BME280;51921;51.518;-3.188;2024-02-28T06:19:01;101463.15;;;6.58;100.00
60817;BME280;51921;51.518;-3.188;2024-02-28T06:21:27;101479.63;;;6.83;100.00
60817;BME280;51921;51.518;-3.188;2024-02-28T06:26:18;101475.15;;;5.47;100.00
60817;BME280;51921;51.518;-3.188;2024-02-28T06:28:44;101475.74;;;7.06;100.00
60817;BME280;51921;51.518;-3.188;2024-02-28T06:31:13;101474.28;;;5.70;100.00
60817;BME280;51921;51.518;-3.188;2024-02-28T06:33:33;101478.80;;;7.09;100.00
60817;BME280;51921;51.518;-3.188;2024-02-28T06:36:05;101474.54;;;6.98;100.00
60817;BME280;51921;51.518;-3.188;2024-02-28T06:38:24;101472.06;;;6.93;100.00
60817;BME280;51921;51.518;-3.188;2024-02-28T06:40:49;101465.71;;;7.17;100.00
60817;BME280;51921;51.518;-3.188;2024-02-28T06:43:15;101460.72;;;6.98;100.00
60817;BME280;51921;51.518;-3.188;2024-02-28T06:48:07;101448.73;;;7.06;100.00
60817;BME280;51921;51.518;-3.188;2024-02-28T06:50:32;101456.71;;;7.04;100.00
60817;BME280;51921;51.518;-3.188;2024-02-28T06:52:56;101464.81;;;6.98;100.00
60817;BME280;51921;51.518;-3.188;2024-02-28T06:55:21;101465.60;;;6.90;100.00
60817;BME280;51921;51.518;-3.188;2024-02-28T06:57:47;101465.28;;;7.10;100.00
60817;BME280;51921;51.518;-3.188;2024-02-28T07:00:12;101464.98;;;6.44;100.00
60817;BME280;51921;51.518;-3.188;2024-02-28T07:02:37;101467.22;;;6.43;100.00
60817;BME280;51921;51.518;-3.188;2024-02-28T07:05:04;101474.60;;;6.52;100.00
60817;BME280;51921;51.518;-3.188;2024-02-28T07:07:28;101479.83;;;7.21;100.00
60817;BME280;51921;51.518;-3.188;2024-02-28T07:09:54;101476.28;;;7.26;100.00
60817;BME280;51921;51.518;-3.188;2024-02-28T07:12:20;101482.58;;;6.01;100.00
60817;BME280;51921;51.518;-3.188;2024-02-28T07:14:45;101480.52;;;7.09;100.00
60817;BME280;51921;51.518;-3.188;2024-02-28T07:19:37;101477.27;;;6.92;100.00
60817;BME280;51921;51.518;-3.188;2024-02-28T07:22:01;101487.62;;;6.24;100.00
60817;BME280;51921;51.518;-3.188;2024-02-28T07:24:27;101484.25;;;6.86;100.00
60817;BME280;51921;51.518;-3.188;2024-02-28T07:26:52;101489.46;;;7.10;100.00
60817;BME280;51921;51.518;-3.188;2024-02-28T07:29:17;101485.71;;;7.41;100.00
60817;BME280;51921;51.518;-3.188;2024-02-28T07:31:44;101486.74;;;6.05;100.00
60817;BME280;51921;51.518;-3.188;2024-02-28T07:34:09;101490.35;;;7.28;100.00
60817;BME280;51921;51.518;-3.188;2024-02-28T07:36:35;101489.42;;;7.16;100.00
60817;BME280;51921;51.518;-3.188;2024-02-28T07:39:00;101492.73;;;7.54;100.00
60817;BME280;51921;51.518;-3.188;2024-02-28T07:41:26;101489.69;;;8.61;100.00
60817;BME280;51921;51.518;-3.188;2024-02-28T07:43:51;101491.70;;;7.07;100.00
60817;BME280;51921;51.518;-3.188;2024-02-28T07:46:15;101491.77;;;7.92;100.00
60817;BME280;51921;51.518;-3.188;2024-02-28T07:51:07;101486.96;;;7.67;100.00
60817;BME280;51921;51.518;-3.188;2024-02-28T07:53:32;101487.71;;;7.74;100.00
60817;BME280;51921;51.518;-3.188;2024-02-28T07:55:57;101480.63;;;8.26;100.00
60817;BME280;51921;51.518;-3.188;2024-02-28T07:58:23;101486.26;;;8.25;100.00
60817;BME280;51921;51.518;-3.188;2024-02-28T08:00:49;101490.37;;;8.75;100.00
60817;BME280;51921;51.518;-3.188;2024-02-28T08:03:14;101488.73;;;9.81;100.00
60817;BME280;51921;51.518;-3.188;2024-02-28T08:05:39;101488.16;;;9.02;100.00
60817;BME280;51921;51.518;-3.188;2024-02-28T08:08:05;101488.06;;;8.77;100.00
60817;BME280;51921;51.518;-3.188;2024-02-28T08:10:30;101488.52;;;8.66;100.00
60817;BME280;51921;51.518;-3.188;2024-02-28T08:12:55;101494.50;;;9.33;100.00
60817;BME280;51921;51.518;-3.188;2024-02-28T08:15:20;101498.48;;;8.72;100.00
60817;BME280;51921;51.518;-3.188;2024-02-28T08:17:46;101502.88;;;8.33;100.00
60817;BME280;51921;51.518;-3.188;2024-02-28T08:20:12;101502.14;;;8.60;100.00
60817;BME280;51921;51.518;-3.188;2024-02-28T08:22:36;101498.83;;;7.06;100.00
60817;BME280;51921;51.518;-3.188;2024-02-28T08:25:03;101497.34;;;6.97;100.00
60817;BME280;51921;51.518;-3.188;2024-02-28T08:27:27;101493.23;;;8.26;100.00
60817;BME280;51921;51.518;-3.188;2024-02-28T08:29:55;101492.12;;;7.50;100.00
60817;BME280;51921;51.518;-3.188;2024-02-28T08:32:19;101490.66;;;7.51;100.00
60817;BME280;51921;51.518;-3.188;2024-02-28T08:34:45;101485.35;;;7.77;100.00
60817;BME280;51921;51.518;-3.188;2024-02-28T08:37:09;101479.73;;;8.54;100.00
60817;BME280;51921;51.518;-3.188;2024-02-28T08:39:34;101478.39;;;10.26;100.00
60817;BME280;51921;51.518;-3.188;2024-02-28T08:42:00;101476.54;;;8.63;100.00
60817;BME280;51921;51.518;-3.188;2024-02-28T08:44:25;101474.57;;;9.45;100.00
60817;BME280;51921;51.518;-3.188;2024-02-28T08:46:51;101468.12;;;8.69;100.00
60817;BME280;51921;51.518;-3.188;2024-02-28T08:51:42;101470.99;;;9.73;100.00
60817;BME280;51921;51.518;-3.188;2024-02-28T08:54:07;101470.09;;;8.74;100.00
60817;BME280;51921;51.518;-3.188;2024-02-28T08:58:59;101470.87;;;9.07;100.00
60817;BME280;51921;51.518;-3.188;2024-02-28T09:01:24;101469.25;;;7.42;100.00
60817;BME280;51921;51.518;-3.188;2024-02-28T09:03:50;101465.83;;;8.76;100.00
60817;BME280;51921;51.518;-3.188;2024-02-28T09:06:16;101463.04;;;7.98;100.00
60817;BME280;51921;51.518;-3.188;2024-02-28T09:08:41;101467.77;;;8.79;100.00
60817;BME280;51921;51.518;-3.188;2024-02-28T09:11:06;101469.69;;;9.23;100.00
60817;BME280;51921;51.518;-3.188;2024-02-28T09:13:32;101466.16;;;8.78;100.00
60817;BME280;51921;51.518;-3.188;2024-02-28T09:15:57;101464.86;;;9.31;100.00
60817;BME280;51921;51.518;-3.188;2024-02-28T09:18:23;101462.72;;;8.87;100.00
60817;BME280;51921;51.518;-3.188;2024-02-28T09:20:48;101456.80;;;9.66;100.00
60817;BME280;51921;51.518;-3.188;2024-02-28T09:23:13;101459.01;;;9.67;100.00
60817;BME280;51921;51.518;-3.188;2024-02-28T09:25:38;101461.46;;;9.54;100.00
60817;BME280;51921;51.518;-3.188;2024-02-28T09:28:04;101457.92;;;9.62;100.00
60817;BME280;51921;51.518;-3.188;2024-02-28T09:30:30;101459.25;;;9.74;100.00
60817;BME280;51921;51.518;-3.188;2024-02-28T09:32:55;101454.20;;;9.58;100.00
60817;BME280;51921;51.518;-3.188;2024-02-28T09:35:21;101453.96;;;10.29;100.00
60817;BME280;51921;51.518;-3.188;2024-02-28T09:37:46;101449.26;;;10.22;100.00
60817;BME280;51921;51.518;-3.188;2024-02-28T09:40:12;101450.83;;;10.22;100.00
60817;BME280;51921;51.518;-3.188;2024-02-28T09:42:37;101449.75;;;9.96;100.00
60817;BME280;51921;51.518;-3.188;2024-02-28T09:45:04;101449.91;;;10.40;100.00
60817;BME280;51921;51.518;-3.188;2024-02-28T09:47:33;101449.88;;;10.50;100.00
60817;BME280;51921;51.518;-3.188;2024-02-28T09:49:54;101447.49;;;10.07;100.00
60817;BME280;51921;51.518;-3.188;2024-02-28T09:52:19;101446.77;;;9.82;100.00
60817;BME280;51921;51.518;-3.188;2024-02-28T09:54:44;101442.68;;;9.91;100.00
60817;BME280;51921;51.518;-3.188;2024-02-28T09:57:11;101438.38;;;10.14;100.00
60817;BME280;51921;51.518;-3.188;2024-02-28T09:59:34;101437.75;;;9.27;100.00
60817;BME280;51921;51.518;-3.188;2024-02-28T10:02:00;101432.80;;;9.00;100.00
60817;BME280;51921;51.518;-3.188;2024-02-28T10:04:26;101434.23;;;9.47;100.00
60817;BME280;51921;51.518;-3.188;2024-02-28T10:06:50;101433.39;;;8.80;100.00
60817;BME280;51921;51.518;-3.188;2024-02-28T10:09:15;101430.34;;;9.05;100.00
60817;BME280;51921;51.518;-3.188;2024-02-28T10:11:41;101427.83;;;8.36;100.00
60817;BME280;51921;51.518;-3.188;2024-02-28T10:14:06;101423.53;;;7.68;100.00
60817;BME280;51921;51.518;-3.188;2024-02-28T10:16:31;101421.39;;;9.09;100.00
60817;BME280;51921;51.518;-3.188;2024-02-28T10:18:57;101413.40;;;7.66;100.00
60817;BME280;51921;51.518;-3.188;2024-02-28T10:21:30;101409.17;;;8.33;100.00
60817;BME280;51921;51.518;-3.188;2024-02-28T10:23:50;101402.59;;;7.80;100.00
60817;BME280;51921;51.518;-3.188;2024-02-28T10:26:13;101397.58;;;8.33;100.00
60817;BME280;51921;51.518;-3.188;2024-02-28T10:28:41;101393.02;;;7.82;100.00
60817;BME280;51921;51.518;-3.188;2024-02-28T10:31:10;101389.40;;;7.72;100.00
60817;BME280;51921;51.518;-3.188;2024-02-28T10:33:31;101384.26;;;7.60;100.00
60817;BME280;51921;51.518;-3.188;2024-02-28T10:35:56;101377.40;;;7.36;100.00
60817;BME280;51921;51.518;-3.188;2024-02-28T10:38:21;101376.59;;;8.04;100.00
60817;BME280;51921;51.518;-3.188;2024-02-28T10:40:47;101376.83;;;9.00;100.00
60817;BME280;51921;51.518;-3.188;2024-02-28T10:43:16;101371.70;;;8.88;100.00
60817;BME280;51921;51.518;-3.188;2024-02-28T10:45:37;101367.31;;;8.25;100.00
60817;BME280;51921;51.518;-3.188;2024-02-28T10:48:04;101357.65;;;7.63;100.00
60817;BME280;51921;51.518;-3.188;2024-02-28T10:50:28;101347.96;;;7.36;100.00
60817;BME280;51921;51.518;-3.188;2024-02-28T10:52:54;101351.02;;;8.37;100.00
60817;BME280;51921;51.518;-3.188;2024-02-28T10:55:21;101339.26;;;7.00;100.00
60817;BME280;51921;51.518;-3.188;2024-02-28T10:57:46;101340.13;;;7.03;100.00
60817;BME280;51921;51.518;-3.188;2024-02-28T11:00:11;101330.02;;;7.57;100.00
60817;BME280;51921;51.518;-3.188;2024-02-28T11:02:35;101320.93;;;7.30;100.00
60817;BME280;51921;51.518;-3.188;2024-02-28T11:05:00;101315.75;;;6.60;100.00
60817;BME280;51921;51.518;-3.188;2024-02-28T11:07:26;101302.05;;;5.79;100.00
60817;BME280;51921;51.518;-3.188;2024-02-28T11:09:54;101280.01;;;6.05;100.00
60817;BME280;51921;51.518;-3.188;2024-02-28T11:12:26;101267.22;;;5.94;100.00
60817;BME280;51921;51.518;-3.188;2024-02-28T11:14:42;101262.60;;;5.84;100.00
60817;BME280;51921;51.518;-3.188;2024-02-28T11:17:08;101253.79;;;5.76;100.00
60817;BME280;51921;51.518;-3.188;2024-02-28T11:19:34;101250.42;;;6.32;100.00
60817;BME280;51921;51.518;-3.188;2024-02-28T11:22:05;101251.72;;;6.42;100.00
60817;BME280;51921;51.518;-3.188;2024-02-28T11:24:30;101260.50;;;6.30;100.00
60817;BME280;51921;51.518;-3.188;2024-02-28T11:26:50;101268.28;;;5.77;100.00
60817;BME280;51921;51.518;-3.188;2024-02-28T11:29:15;101272.40;;;6.56;100.00
60817;BME280;51921;51.518;-3.188;2024-02-28T11:31:40;101282.19;;;6.90;100.00
60817;BME280;51921;51.518;-3.188;2024-02-28T11:34:06;101287.78;;;7.13;100.00
60817;BME280;51921;51.518;-3.188;2024-02-28T11:36:32;101291.61;;;6.64;100.00
60817;BME280;51921;51.518;-3.188;2024-02-28T11:38:57;101293.16;;;7.27;100.00
60817;BME280;51921;51.518;-3.188;2024-02-28T11:41:26;101294.81;;;7.30;100.00
60817;BME280;51921;51.518;-3.188;2024-02-28T11:43:48;101298.34;;;7.51;100.00
60817;BME280;51921;51.518;-3.188;2024-02-28T11:48:39;101285.54;;;7.36;100.00
60817;BME280;51921;51.518;-3.188;2024-02-28T11:51:04;101280.31;;;6.94;100.00
60817;BME280;51921;51.518;-3.188;2024-02-28T11:53:30;101284.14;;;8.07;100.00
60817;BME280;51921;51.518;-3.188;2024-02-28T11:55:55;101284.95;;;8.33;100.00
60817;BME280;51921;51.518;-3.188;2024-02-28T11:58:21;101283.69;;;7.90;100.00
60817;BME280;51921;51.518;-3.188;2024-02-28T12:03:11;101268.54;;;7.50;100.00
60817;BME280;51921;51.518;-3.188;2024-02-28T12:05:38;101269.61;;;8.18;100.00
60817;BME280;51921;51.518;-3.188;2024-02-28T12:08:02;101266.40;;;6.99;100.00
60817;BME280;51921;51.518;-3.188;2024-02-28T12:10:28;101265.74;;;8.48;100.00
60817;BME280;51921;51.518;-3.188;2024-02-28T12:12:53;101266.07;;;8.42;100.00
60817;BME280;51921;51.518;-3.188;2024-02-28T12:15:19;101253.43;;;8.58;100.00
60817;BME280;51921;51.518;-3.188;2024-02-28T12:17:44;101248.36;;;7.18;100.00
60817;BME280;51921;51.518;-3.188;2024-02-28T12:20:10;101241.07;;;8.25;100.00
60817;BME280;51921;51.518;-3.188;2024-02-28T12:22:35;101233.48;;;9.10;100.00
60817;BME280;51921;51.518;-3.188;2024-02-28T12:25:00;101234.27;;;7.53;100.00
60817;BME280;51921;51.518;-3.188;2024-02-28T12:27:26;101228.08;;;8.91;100.00
60817;BME280;51921;51.518;-3.188;2024-02-28T12:29:51;101224.21;;;9.52;100.00
60817;BME280;51921;51.518;-3.188;2024-02-28T12:32:17;101214.88;;;9.56;100.00
60817;BME280;51921;51.518;-3.188;2024-02-28T12:34:42;101210.99;;;8.28;100.00
60817;BME280;51921;51.518;-3.188;2024-02-28T12:37:07;101208.63;;;8.85;100.00
60817;BME280;51921;51.518;-3.188;2024-02-28T12:39:33;101213.28;;;7.67;100.00
60817;BME280;51921;51.518;-3.188;2024-02-28T12:41:58;101210.37;;;8.06;100.00
60817;BME280;51921;51.518;-3.188;2024-02-28T12:44:24;101207.41;;;9.41;100.00
60817;BME280;51921;51.518;-3.188;2024-02-28T12:46:49;101207.05;;;10.07;100.00
60817;BME280;51921;51.518;-3.188;2024-02-28T12:49:15;101209.09;;;10.05;100.00
60817;BME280;51921;51.518;-3.188;2024-02-28T12:51:41;101209.57;;;8.41;100.00
60817;BME280;51921;51.518;-3.188;2024-02-28T12:54:06;101206.76;;;9.40;100.00
60817;BME280;51921;51.518;-3.188;2024-02-28T12:56:31;101200.70;;;9.33;100.00
60817;BME280;51921;51.518;-3.188;2024-02-28T12:58:57;101199.86;;;6.93;100.00
60817;BME280;51921;51.518;-3.188;2024-02-28T13:01:22;101191.13;;;9.14;100.00
60817;BME280;51921;51.518;-3.188;2024-02-28T13:03:47;101188.19;;;8.77;100.00
60817;BME280;51921;51.518;-3.188;2024-02-28T13:08:39;101183.51;;;9.46;100.00